Time;durP1;ratioP1;P1;durP2;ratioP2;P2;SDS_P1;SDS_P2;PMS_P1;PMS_P2;Temp;Humidity;BMP_temperature;BMP_pressure;BME280_temperature;BME280_humidity;BME280_pressure;Samples;Min_cycle;Max_cycle;Signal;HPM_P1;HPM_P2
2023/04/02 00:02:22;;;;;;;0.30;0.30;;;;;;;8.35;88.02;100204.59;5139522;28;20041;-82
2023/04/02 00:05:15;;;;;;;0.30;0.30;;;;;;;8.30;88.14;100202.09;5140189;28;20043;-83
2023/04/02 00:07:56;;;;;;;0.50;0.50;;;;;;;8.25;87.64;100210.97;5137993;28;20027;-82
2023/04/02 00:10:35;;;;;;;1.75;0.98;;;;;;;8.21;88.12;100207.56;5123663;28;20118;-83
2023/04/02 00:13:22;;;;;;;0.35;0.35;;;;;;;8.15;88.28;100211.19;5127241;28;20031;-83
2023/04/02 00:15:56;;;;;;;0.47;0.47;;;;;;;8.08;87.94;100222.69;5132862;28;20042;-82
2023/04/02 00:18:27;;;;;;;0.30;0.30;;;;;;;8.11;88.30;100227.84;5138445;28;20038;-82
2023/04/02 00:21:12;;;;;;;0.40;0.40;;;;;;;7.95;89.03;100229.13;5153988;28;20035;-83
2023/04/02 00:23:43;;;;;;;0.30;0.30;;;;;;;8.14;88.34;100235.59;5138585;28;20018;-82
2023/04/02 00:26:20;;;;;;;0.50;0.50;;;;;;;8.15;88.33;100241.69;5125918;28;20047;-82
2023/04/02 00:28:51;;;;;;;0.30;0.30;;;;;;;8.09;87.70;100247.09;5126240;28;20034;-83
2023/04/02 00:31:22;;;;;;;0.40;0.40;;;;;;;8.12;87.66;100255.72;5138817;28;20039;-83
2023/04/02 00:33:53;;;;;;;0.30;0.30;;;;;;;8.09;87.65;100258.38;5116185;28;20019;-83
2023/04/02 00:36:25;;;;;;;0.40;0.40;;;;;;;7.71;88.80;100257.53;5112594;28;20039;-82
2023/04/02 00:38:58;;;;;;;0.30;0.30;;;;;;;7.64;88.87;100267.25;5146756;28;20026;-82
2023/04/02 00:41:34;;;;;;;0.30;0.30;;;;;;;7.71;89.00;100274.06;5153693;28;20521;-83
2023/04/02 00:44:05;;;;;;;0.30;0.30;;;;;;;7.81;88.40;100274.69;5121329;28;21108;-83
2023/04/02 00:46:45;;;;;;;0.40;0.40;;;;;;;7.55;89.20;100286.59;5139397;28;20088;-83
2023/04/02 00:49:35;;;;;;;0.20;0.20;;;;;;;7.57;89.73;100281.34;5121847;28;20031;-83
2023/04/02 00:52:16;;;;;;;0.68;0.68;;;;;;;7.66;88.49;100293.31;5105224;28;20034;-84
2023/04/02 00:54:55;;;;;;;0.40;0.40;;;;;;;7.56;88.95;100293.53;5118830;28;20097;-82
2023/04/02 00:57:26;;;;;;;0.30;0.30;;;;;;;7.78;88.55;100300.03;5143229;28;20489;-83
2023/04/02 01:00:34;;;;;;;0.32;0.32;;;;;;;7.76;88.45;100305.28;5119931;28;20047;-82
2023/04/02 01:03:16;;;;;;;0.30;0.30;;;;;;;7.70;88.61;100302.81;5135705;28;20469;-83
2023/04/02 01:06:01;;;;;;;0.30;0.30;;;;;;;7.69;88.74;100308.94;5137510;28;20057;-83
2023/04/02 01:08:56;;;;;;;0.70;0.70;;;;;;;7.86;87.72;100324.22;5122583;28;20038;-84
2023/04/02 01:11:52;;;;;;;0.30;0.30;;;;;;;7.86;87.17;100324.22;5129536;28;20065;-85
2023/04/02 01:14:40;;;;;;;0.30;0.30;;;;;;;7.70;87.21;100334.16;5131686;28;20082;-83
2023/04/02 01:17:32;;;;;;;1.20;1.05;;;;;;;7.77;86.74;100334.91;5122866;28;20033;-84
2023/04/02 01:20:38;;;;;;;0.60;0.60;;;;;;;7.57;86.96;100331.78;5122584;28;20050;-84
2023/04/02 01:23:47;;;;;;;0.40;0.40;;;;;;;7.70;86.33;100336.78;5126890;28;20031;-84
2023/04/02 01:26:27;;;;;;;0.30;0.30;;;;;;;7.65;86.52;100342.09;5048345;29;20465;-83
2023/04/02 01:29:13;;;;;;;0.40;0.40;;;;;;;7.57;86.68;100336.16;5048281;29;20036;-85
2023/04/02 01:31:44;;;;;;;0.45;0.45;;;;;;;7.43;86.78;100346.88;5119207;28;20081;-85
2023/04/02 01:34:18;;;;;;;0.40;0.40;;;;;;;7.60;85.79;100353.53;5141480;28;20038;-83
2023/04/02 01:36:48;;;;;;;0.40;0.40;;;;;;;7.29;87.19;100354.13;5127559;28;20903;-82
2023/04/02 01:39:34;;;;;;;0.30;0.30;;;;;;;7.31;87.47;100365.41;5133473;28;20039;-83
2023/04/02 01:42:19;;;;;;;0.30;0.30;;;;;;;7.15;88.43;100365.69;5106791;28;20071;-83
2023/04/02 01:44:58;;;;;;;0.68;0.68;;;;;;;7.31;88.41;100373.25;5121644;28;20133;-84
2023/04/02 01:47:29;;;;;;;0.73;0.73;;;;;;;7.32;88.17;100372.31;5123430;28;20031;-84
2023/04/02 01:50:17;;;;;;;0.30;0.30;;;;;;;7.47;87.70;100389.44;5109959;28;20098;-83
2023/04/02 01:52:55;;;;;;;0.40;0.40;;;;;;;7.28;87.17;100388.94;5117502;28;20050;-83
2023/04/02 01:55:47;;;;;;;0.50;0.50;;;;;;;7.29;87.53;100394.13;5125591;28;20053;-83
2023/04/02 01:58:27;;;;;;;1.08;0.88;;;;;;;7.20;87.06;100397.78;5122428;28;20050;-83
2023/04/02 02:01:08;;;;;;;0.30;0.30;;;;;;;7.11;87.60;100399.72;5113100;28;20109;-83
2023/04/02 02:03:41;;;;;;;0.40;0.40;;;;;;;7.20;87.11;100402.13;5138107;28;20074;-84
2023/04/02 02:06:13;;;;;;;0.82;0.82;;;;;;;7.07;88.17;100417.13;5122608;28;20936;-83
2023/04/02 02:08:52;;;;;;;0.40;0.40;;;;;;;7.01;88.19;100418.13;5138391;28;20074;-84
2023/04/02 02:11:27;;;;;;;0.40;0.40;;;;;;;6.93;88.07;100430.44;5135847;28;20456;-82
2023/04/02 02:14:10;;;;;;;0.50;0.50;;;;;;;7.05;88.03;100429.38;5125323;28;20034;-83
2023/04/02 02:16:41;;;;;;;0.40;0.40;;;;;;;6.87;88.23;100431.41;5142549;28;20124;-84
2023/04/02 02:19:22;;;;;;;0.98;0.98;;;;;;;6.90;87.89;100436.53;5111399;28;20039;-84
2023/04/02 02:21:56;;;;;;;0.30;0.30;;;;;;;6.97;87.39;100452.13;5160115;28;20027;-83
2023/04/02 02:24:31;;;;;;;0.55;0.55;;;;;;;6.97;87.19;100447.75;5138469;28;20726;-83
2023/04/02 02:27:22;;;;;;;0.40;0.40;;;;;;;6.92;87.21;100452.19;5111865;28;20026;-84
2023/04/02 02:30:11;;;;;;;1.20;1.20;;;;;;;6.88;87.82;100469.63;5127407;28;20436;-83
2023/04/02 02:33:17;;;;;;;0.50;0.50;;;;;;;7.01;86.85;100466.81;5139047;28;20545;-83
2023/04/02 02:35:59;;;;;;;0.30;0.30;;;;;;;6.98;87.36;100472.94;5101939;28;20085;-82
2023/04/02 02:38:33;;;;;;;0.65;0.65;;;;;;;7.01;87.36;100478.13;5123170;28;20047;-83
2023/04/02 02:41:07;;;;;;;;;;;;;;;7.04;87.93;100474.59;5144725;28;20046;-83
2023/04/02 02:43:42;;;;;;;0.43;0.43;;;;;;;6.75;88.18;100484.63;5153465;28;19921;-84
2023/04/02 02:46:17;;;;;;;0.47;0.47;;;;;;;7.04;87.34;100495.47;5108224;28;20046;-84
2023/04/02 02:48:49;;;;;;;0.55;0.55;;;;;;;6.87;87.37;100498.34;5151888;28;20077;-83
2023/04/02 02:51:37;;;;;;;0.75;0.75;;;;;;;6.81;87.55;100501.91;5128504;28;20097;-83
2023/04/02 02:54:08;;;;;;;0.32;0.32;;;;;;;6.80;87.05;100513.22;5122346;28;20035;-83
2023/04/02 02:56:43;;;;;;;0.75;0.75;;;;;;;7.03;86.65;100519.84;5137927;28;20038;-83
2023/04/02 02:59:15;;;;;;;0.43;0.43;;;;;;;6.80;86.33;100528.00;5136324;28;20073;-81
2023/04/02 03:01:46;;;;;;;0.40;0.40;;;;;;;6.84;86.28;100540.13;5121199;28;20100;-83
2023/04/02 03:04:21;;;;;;;0.60;0.60;;;;;;;6.78;86.23;100541.91;5114043;28;20042;-83
2023/04/02 03:06:55;;;;;;;0.30;0.30;;;;;;;6.67;85.77;100543.84;5141848;28;20082;-83
2023/04/02 03:09:52;;;;;;;0.38;0.38;;;;;;;6.66;85.98;100551.66;5124673;28;20101;-83
2023/04/02 03:12:34;;;;;;;0.40;0.40;;;;;;;6.61;85.69;100543.94;5122228;28;20034;-83
2023/04/02 03:15:21;;;;;;;0.30;0.30;;;;;;;6.42;86.46;100557.19;5139704;28;20088;-84
2023/04/02 03:18:24;;;;;;;0.50;0.50;;;;;;;6.69;86.09;100556.84;5126571;28;20029;-84
2023/04/02 03:21:01;;;;;;;0.50;0.50;;;;;;;6.69;85.96;100562.94;5129914;28;20035;-83
2023/04/02 03:23:38;;;;;;;0.73;0.73;;;;;;;6.68;85.70;100568.16;5140166;28;20430;-84
2023/04/02 03:26:21;;;;;;;0.30;0.30;;;;;;;6.52;85.71;100578.78;5109454;28;20470;-83
2023/04/02 03:29:26;;;;;;;0.65;0.65;;;;;;;6.61;85.86;100585.63;5140290;28;20061;-83
2023/04/02 03:32:04;;;;;;;0.50;0.50;;;;;;;6.71;85.36;100591.59;5089192;28;20048;-83
2023/04/02 03:34:42;;;;;;;0.70;0.70;;;;;;;6.68;85.74;100607.25;5121152;28;20039;-82
2023/04/02 03:37:30;;;;;;;0.47;0.47;;;;;;;6.71;85.57;100602.00;5153110;28;20062;-82
2023/04/02 03:40:09;;;;;;;0.50;0.50;;;;;;;6.64;86.23;100606.44;5142404;28;20066;-82
2023/04/02 03:43:01;;;;;;;0.77;0.77;;;;;;;6.55;85.85;100612.63;5138443;28;20023;-83
2023/04/02 03:45:37;;;;;;;0.73;0.73;;;;;;;6.66;85.86;100619.44;5118183;28;20074;-83
2023/04/02 03:48:17;;;;;;;0.38;0.38;;;;;;;6.71;86.03;100625.47;5123656;28;20031;-81
2023/04/02 03:50:56;;;;;;;1.75;1.05;;;;;;;6.65;85.43;100628.19;5138913;28;20043;-83
2023/04/02 03:53:30;;;;;;;0.30;0.30;;;;;;;6.52;85.46;100632.66;5110269;28;20030;-82
2023/04/02 03:56:02;;;;;;;0.40;0.40;;;;;;;6.54;85.21;100642.19;5140724;28;20092;-83
2023/04/02 03:58:43;;;;;;;1.58;0.52;;;;;;;6.58;85.49;100649.09;5123489;28;20516;-83
2023/04/02 04:01:28;;;;;;;0.47;0.47;;;;;;;6.44;84.97;100657.09;5121430;28;20043;-82
2023/04/02 04:04:12;;;;;;;0.50;0.50;;;;;;;6.27;86.03;100657.25;5153496;28;20018;-82
2023/04/02 04:06:45;;;;;;;0.38;0.38;;;;;;;6.40;85.84;100664.94;5135786;28;20030;-82
2023/04/02 04:09:23;;;;;;;0.50;0.50;;;;;;;6.41;85.74;100670.13;5141433;28;20046;-83
2023/04/02 04:12:23;;;;;;;0.50;0.50;;;;;;;6.33;85.71;100673.69;5134981;28;20026;-83
2023/04/02 04:15:01;;;;;;;0.30;0.30;;;;;;;6.48;85.00;100680.50;5122210;28;20047;-82
2023/04/02 04:18:00;;;;;;;0.93;0.93;;;;;;;6.42;84.45;100689.22;5139417;28;20029;-83
2023/04/02 04:20:44;;;;;;;0.32;0.32;;;;;;;6.26;86.07;100686.78;5117988;28;20043;-83
2023/04/02 04:23:28;;;;;;;0.30;0.30;;;;;;;6.21;86.38;100701.59;5139766;28;20105;-81
2023/04/02 04:26:04;;;;;;;;;;;;;;;6.20;85.87;100704.25;5127992;28;20049;-82
2023/04/02 04:28:48;;;;;;;0.30;0.30;;;;;;;6.30;84.86;100714.56;5126966;28;19989;-83
2023/04/02 04:31:21;;;;;;;;;;;;;;;6.19;85.48;100716.38;5143312;28;20038;-82
2023/04/02 04:34:02;;;;;;;1.00;1.00;;;;;;;6.29;85.41;100728.47;5129194;28;19914;-83
2023/04/02 04:36:52;;;;;;;0.30;0.30;;;;;;;6.32;85.48;100729.31;5136078;28;20046;-83
2023/04/02 04:39:41;;;;;;;0.35;0.35;;;;;;;6.35;84.19;100744.91;5128788;28;20049;-83
2023/04/02 04:42:19;;;;;;;0.30;0.30;;;;;;;6.38;84.86;100744.88;5156302;28;20031;-83
2023/04/02 04:45:00;;;;;;;0.40;0.40;;;;;;;6.21;85.36;100751.13;5121258;28;20046;-81
2023/04/02 04:48:00;;;;;;;0.30;0.30;;;;;;;6.31;85.15;100764.91;5124946;28;20112;-83
2023/04/02 04:50:30;;;;;;;0.60;0.60;;;;;;;6.23;85.12;100762.41;5123486;28;20573;-83
2023/04/02 04:53:15;;;;;;;0.30;0.30;;;;;;;6.23;85.58;100767.59;5125081;28;20080;-83
2023/04/02 04:55:47;;;;;;;1.45;1.35;;;;;;;6.24;85.22;100779.72;5127166;28;20046;-82
2023/04/02 04:58:21;;;;;;;0.50;0.50;;;;;;;6.29;84.80;100783.19;5107510;28;20031;-83
2023/04/02 05:01:10;;;;;;;0.38;0.38;;;;;;;5.93;85.70;100782.53;5116956;28;20047;-83
2023/04/02 05:03:50;;;;;;;0.50;0.50;;;;;;;5.98;85.83;100793.81;5121669;28;20117;-84
2023/04/02 05:06:36;;;;;;;0.32;0.32;;;;;;;6.28;84.85;100804.06;5145403;28;20039;-83
2023/04/02 05:09:37;;;;;;;0.95;0.95;;;;;;;6.10;84.78;100807.63;5138694;28;20027;-82
2023/04/02 05:12:33;;;;;;;0.40;0.40;;;;;;;5.87;84.99;100813.84;5107884;28;20514;-83
2023/04/02 05:15:25;;;;;;;1.08;1.08;;;;;;;6.02;84.97;100819.84;5107327;28;20050;-83
2023/04/02 05:18:11;;;;;;;0.57;0.57;;;;;;;5.92;85.26;100827.69;5119662;28;20031;-82
2023/04/02 05:20:54;;;;;;;0.60;0.60;;;;;;;5.86;85.69;100830.34;5138523;28;20041;-84
2023/04/02 05:23:33;;;;;;;0.63;0.63;;;;;;;5.82;84.86;100839.06;5136320;28;20027;-84
2023/04/02 05:26:16;;;;;;;0.60;0.60;;;;;;;6.06;84.08;100852.84;5138229;28;20042;-82
2023/04/02 05:28:49;;;;;;;0.35;0.35;;;;;;;5.76;84.06;100857.28;5136718;28;20043;-83
2023/04/02 05:31:19;;;;;;;0.68;0.68;;;;;;;5.63;84.64;100857.38;5118398;28;20039;-83
2023/04/02 05:33:51;;;;;;;0.30;0.30;;;;;;;5.73;84.00;100863.38;5112522;28;20027;-83
2023/04/02 05:36:25;;;;;;;0.30;0.30;;;;;;;5.65;84.62;100862.56;5133923;28;20042;-83
2023/04/02 05:38:57;;;;;;;1.63;1.52;;;;;;;5.57;85.40;100873.00;5139916;28;20065;-83
2023/04/02 05:41:35;;;;;;;0.50;0.50;;;;;;;5.71;84.22;100877.28;5100056;28;20101;-83
2023/04/02 05:44:44;;;;;;;0.52;0.52;;;;;;;5.36;84.37;100893.03;5133947;28;20114;-83
2023/04/02 05:47:39;;;;;;;0.40;0.40;;;;;;;5.39;85.48;100897.34;5089412;28;20746;-83
2023/04/02 05:50:19;;;;;;;0.40;0.40;;;;;;;5.47;85.11;100898.19;5154860;28;20093;-83
2023/04/02 05:52:57;;;;;;;7.90;2.42;;;;;;;5.51;84.85;100907.75;5123143;28;20073;-83
2023/04/02 05:55:58;;;;;;;0.40;0.40;;;;;;;5.41;84.09;100911.22;5115028;28;20042;-84
2023/04/02 05:58:59;;;;;;;6.80;1.35;;;;;;;5.54;84.27;100926.81;5105168;28;20039;-83
2023/04/02 06:01:48;;;;;;;0.30;0.30;;;;;;;5.27;84.62;100919.06;5107066;28;20039;-82
2023/04/02 06:04:35;;;;;;;0.50;0.50;;;;;;;5.39;84.86;100931.19;5137983;28;20042;-81
2023/04/02 06:07:20;;;;;;;0.60;0.60;;;;;;;5.18;85.54;100942.47;5113944;28;20489;-82
2023/04/02 06:10:02;;;;;;;0.70;0.70;;;;;;;5.14;85.67;100939.03;5111412;28;20039;-83
2023/04/02 06:13:02;;;;;;;1.33;1.23;;;;;;;5.36;84.66;100945.06;5116768;28;20037;-82
2023/04/02 06:15:35;;;;;;;0.60;0.60;;;;;;;5.34;84.62;100949.41;5124863;28;20070;-83
2023/04/02 06:18:19;;;;;;;0.70;0.70;;;;;;;5.23;85.52;100966.78;5140294;28;20031;-84
2023/04/02 06:20:50;;;;;;;1.55;0.82;;;;;;;5.29;85.37;100974.56;5155893;28;20051;-85
2023/04/02 06:23:48;;;;;;;1.38;1.25;;;;;;;5.03;86.69;100972.84;5143311;28;20397;-85
2023/04/02 06:26:37;;;;;;;0.40;0.40;;;;;;;5.25;86.23;100982.38;5122708;28;20055;-83
2023/04/02 06:29:38;;;;;;;0.30;0.30;;;;;;;5.17;86.33;100990.16;5120886;28;20081;-83
2023/04/02 06:32:10;;;;;;;0.40;0.40;;;;;;;5.21;86.11;100997.13;5138847;28;20051;-83
2023/04/02 06:34:41;;;;;;;1.25;1.15;;;;;;;4.99;87.14;100998.84;5132433;28;20057;-83
2023/04/02 06:37:27;;;;;;;0.52;0.52;;;;;;;5.11;86.42;101001.47;5122057;28;20035;-83
2023/04/02 06:40:00;;;;;;;0.50;0.50;;;;;;;5.14;86.67;101006.66;5105671;28;20285;-83
2023/04/02 06:42:36;;;;;;;1.10;1.10;;;;;;;5.09;87.79;101021.41;5138153;28;20031;-83
2023/04/02 06:45:17;;;;;;;0.82;0.82;;;;;;;4.89;87.53;101021.38;5121284;28;20459;-85
2023/04/02 06:47:50;;;;;;;0.57;0.57;;;;;;;5.10;87.20;101023.16;5150787;28;20165;-83
2023/04/02 06:50:30;;;;;;;1.02;1.02;;;;;;;5.20;86.71;101037.91;5127668;28;20043;-84
2023/04/02 06:53:05;;;;;;;0.95;0.95;;;;;;;5.20;86.82;101039.63;5118012;28;20078;-84
2023/04/02 06:55:51;;;;;;;0.70;0.70;;;;;;;4.80;87.98;101036.97;5114975;28;20122;-84
2023/04/02 06:58:21;;;;;;;1.02;1.02;;;;;;;5.04;86.71;101047.41;5120271;28;20031;-84
2023/04/02 07:00:52;;;;;;;1.17;1.17;;;;;;;4.98;86.08;101055.22;5122380;28;20031;-84
2023/04/02 07:03:26;;;;;;;3.10;1.88;;;;;;;5.03;86.28;101063.03;5119266;28;20031;-84
2023/04/02 07:05:59;;;;;;;2.25;1.00;;;;;;;4.98;86.14;101073.41;5104724;28;20182;-84
2023/04/02 07:08:29;;;;;;;0.67;0.67;;;;;;;5.12;86.38;101069.94;5134877;28;20034;-85
2023/04/02 07:11:00;;;;;;;1.25;1.08;;;;;;;4.94;85.75;101084.66;5120438;28;20501;-85
2023/04/02 07:13:30;;;;;;;1.33;1.33;;;;;;;4.99;85.78;101093.34;5131897;28;20027;-84
2023/04/02 07:16:01;;;;;;;0.60;0.60;;;;;;;4.88;85.67;101095.91;5130971;28;20049;-84
2023/04/02 07:18:32;;;;;;;2.97;1.83;;;;;;;4.94;85.95;101108.06;5152778;28;20121;-84
2023/04/02 07:21:03;;;;;;;4.00;1.75;;;;;;;5.07;85.58;101102.91;5133478;28;20050;-84
2023/04/02 07:23:33;;;;;;;1.08;1.02;;;;;;;5.06;85.18;101117.63;5128932;28;20508;-84
2023/04/02 07:26:06;;;;;;;0.90;0.80;;;;;;;5.25;84.62;101122.88;5122619;28;20074;-84
2023/04/02 07:28:36;;;;;;;0.40;0.40;;;;;;;5.11;84.28;101128.94;5111999;28;20118;-84
2023/04/02 07:31:23;;;;;;;2.47;2.28;;;;;;;5.12;84.76;101133.28;5148667;28;20463;-84
2023/04/02 07:33:58;;;;;;;1.25;1.20;;;;;;;5.18;85.18;101142.78;5136942;28;20035;-83
2023/04/02 07:36:29;;;;;;;0.80;0.75;;;;;;;5.12;84.64;101155.78;5137361;28;20047;-83
2023/04/02 07:39:00;;;;;;;0.50;0.50;;;;;;;4.92;84.46;101150.53;5136789;28;20379;-83
2023/04/02 07:41:30;;;;;;;0.70;0.70;;;;;;;4.94;84.59;101162.69;5125183;28;20049;-83
2023/04/02 07:44:03;;;;;;;0.77;0.77;;;;;;;5.06;84.38;101159.25;5134315;28;20490;-83
2023/04/02 07:46:33;;;;;;;5.57;2.20;;;;;;;5.04;84.62;101161.84;5104467;28;20195;-82
2023/04/02 07:49:03;;;;;;;0.70;0.70;;;;;;;4.76;85.05;101165.19;5144756;28;20037;-83
2023/04/02 07:51:34;;;;;;;0.60;0.60;;;;;;;4.75;84.64;101172.16;5137834;28;20504;-82
2023/04/02 07:54:06;;;;;;;1.70;1.60;;;;;;;4.81;84.47;101171.31;5118696;28;20094;-82
2023/04/02 07:56:37;;;;;;;20.20;1.95;;;;;;;4.68;84.83;101184.22;5133203;28;20034;-82
2023/04/02 07:59:08;;;;;;;0.77;0.77;;;;;;;4.76;83.56;101191.19;5129809;28;20675;-83
2023/04/02 08:01:39;;;;;;;1.98;1.80;;;;;;;4.79;84.08;101186.03;5106747;28;20027;-82
2023/04/02 08:04:21;;;;;;;0.93;0.93;;;;;;;4.78;83.96;101194.69;5103953;28;20488;-83
2023/04/02 08:06:51;;;;;;;1.40;1.05;;;;;;;4.60;84.51;101204.13;5131134;28;20058;-82
2023/04/02 08:09:22;;;;;;;0.40;0.40;;;;;;;4.86;84.29;101199.06;5145941;28;20053;-83
2023/04/02 08:11:52;;;;;;;1.45;1.35;;;;;;;4.70;83.46;101207.66;5130546;28;20440;-83
2023/04/02 08:14:22;;;;;;;0.47;0.47;;;;;;;4.78;83.69;101210.28;5101755;28;20049;-83
2023/04/02 08:16:54;;;;;;;0.40;0.40;;;;;;;4.84;83.40;101221.59;5103008;28;20251;-83
2023/04/02 08:19:25;;;;;;;1.27;1.25;;;;;;;4.94;83.14;101227.69;5134284;28;20051;-83
2023/04/02 08:21:56;;;;;;;0.60;0.60;;;;;;;4.88;83.54;101233.72;5126891;28;20050;-83
2023/04/02 08:24:26;;;;;;;3.70;1.13;;;;;;;4.81;83.91;101237.16;5127043;28;20039;-83
2023/04/02 08:26:56;;;;;;;0.60;0.60;;;;;;;4.70;83.82;101241.44;5115376;28;20030;-83
2023/04/02 08:29:31;;;;;;;0.70;0.70;;;;;;;4.81;83.50;101251.91;5149419;28;20035;-83
2023/04/02 08:32:01;;;;;;;0.75;0.75;;;;;;;4.86;83.57;101244.97;5121256;28;20034;-83
2023/04/02 08:34:32;;;;;;;0.50;0.50;;;;;;;5.03;82.73;101258.94;5111651;28;20077;-83
2023/04/02 08:37:02;;;;;;;0.88;0.88;;;;;;;4.77;83.28;101257.94;5116831;28;20031;-83
2023/04/02 08:39:34;;;;;;;0.70;0.70;;;;;;;4.83;83.26;101263.19;5146510;28;20058;-82
2023/04/02 08:42:11;;;;;;;0.80;0.80;;;;;;;4.90;82.71;101267.56;5135492;28;20205;-83
2023/04/02 08:44:53;;;;;;;0.30;0.30;;;;;;;4.66;83.58;101276.06;5124185;28;20050;-83
2023/04/02 08:47:28;;;;;;;0.52;0.52;;;;;;;4.65;83.86;101275.22;5142204;28;20166;-83
2023/04/02 08:50:03;;;;;;;0.70;0.70;;;;;;;4.69;83.46;101282.16;5139851;28;20337;-83
2023/04/02 08:52:37;;;;;;;2.15;1.52;;;;;;;4.87;82.73;101291.81;5125315;28;20315;-83
2023/04/02 08:55:31;;;;;;;;;;;;;;;4.74;83.22;101295.19;5121443;28;20074;-82
2023/04/02 08:58:28;;;;;;;0.50;0.50;;;;;;;4.77;83.03;101305.63;5148526;28;19917;-83
2023/04/02 09:01:02;;;;;;;0.88;0.88;;;;;;;4.73;82.71;101309.03;5138846;28;20042;-83
2023/04/02 09:03:40;;;;;;;1.00;1.00;;;;;;;5.00;82.04;101310.94;5105798;28;20034;-82
2023/04/02 09:06:16;;;;;;;1.02;0.98;;;;;;;4.76;82.53;101322.06;5117392;28;20050;-82
2023/04/02 09:08:49;;;;;;;1.48;1.38;;;;;;;4.85;82.71;101322.13;5132521;28;20031;-82
2023/04/02 09:11:32;;;;;;;0.63;0.63;;;;;;;4.83;82.79;101338.59;5121939;28;20043;-83
2023/04/02 09:14:12;;;;;;;0.88;0.88;;;;;;;4.97;82.42;101336.94;5114149;28;20121;-83
2023/04/02 09:16:46;;;;;;;1.15;1.15;;;;;;;4.89;81.23;101338.63;5119847;28;20517;-83
2023/04/02 09:19:21;;;;;;;0.40;0.40;;;;;;;4.97;81.92;101342.16;5113045;28;20521;-83
2023/04/02 09:22:03;;;;;;;0.85;0.85;;;;;;;5.09;81.42;101340.47;5122642;28;20023;-82
2023/04/02 09:24:34;;;;;;;0.30;0.30;;;;;;;5.17;81.15;101344.84;5134962;28;20082;-83
2023/04/02 09:27:18;;;;;;;0.52;0.52;;;;;;;5.30;81.21;101351.00;5134639;28;20031;-83
2023/04/02 09:29:55;;;;;;;0.38;0.38;;;;;;;5.24;80.89;101357.88;5120858;28;20043;-83
2023/04/02 09:32:32;;;;;;;0.47;0.47;;;;;;;5.15;80.40;101361.31;5134970;28;20746;-83
2023/04/02 09:35:11;;;;;;;0.30;0.30;;;;;;;5.16;80.44;101363.94;5132575;28;20182;-83
2023/04/02 09:37:43;;;;;;;0.52;0.52;;;;;;;5.37;81.07;101372.72;5135216;28;20053;-83
2023/04/02 09:40:23;;;;;;;0.95;0.95;;;;;;;5.17;80.97;101381.28;5133348;28;20057;-83
2023/04/02 09:43:25;;;;;;;0.68;0.68;;;;;;;5.36;80.26;101381.38;5137559;28;20075;-83
2023/04/02 09:46:05;;;;;;;0.50;0.50;;;;;;;5.32;79.90;101393.53;5115782;28;20386;-83
2023/04/02 09:48:52;;;;;;;0.30;0.30;;;;;;;5.28;79.48;101394.34;5139571;28;20130;-83
2023/04/02 09:51:33;;;;;;;0.38;0.38;;;;;;;5.48;80.45;101398.78;5119643;28;20071;-83
2023/04/02 09:54:03;;;;;;;0.50;0.50;;;;;;;5.33;79.34;101399.56;5130657;28;20034;-84
2023/04/02 09:56:35;;;;;;;0.98;0.98;;;;;;;5.35;79.58;101403.91;5117011;28;20031;-83
2023/04/02 09:59:14;;;;;;;0.65;0.65;;;;;;;5.44;78.90;101410.03;5117682;28;20039;-83
2023/04/02 10:01:47;;;;;;;0.60;0.60;;;;;;;5.49;78.89;101418.75;5115153;28;20129;-82
2023/04/02 10:04:33;;;;;;;;;;;;;;;5.51;79.32;101417.00;5116048;28;20347;-83
2023/04/02 10:07:05;;;;;;;0.40;0.40;;;;;;;5.36;77.48;101429.09;5166457;28;20217;-82
2023/04/02 10:09:37;;;;;;;1.00;0.80;;;;;;;5.40;78.41;101435.19;5137471;28;20089;-82
2023/04/02 10:12:12;;;;;;;0.30;0.30;;;;;;;5.43;77.21;101439.53;5124262;28;20027;-84
2023/04/02 10:14:47;;;;;;;0.30;0.30;;;;;;;5.37;77.88;101440.38;5097894;28;20054;-82
2023/04/02 10:17:22;;;;;;;0.32;0.32;;;;;;;5.49;77.65;101450.00;5130090;28;20039;-83
2023/04/02 10:19:58;;;;;;;0.50;0.50;;;;;;;5.40;76.31;101456.00;5121827;28;20045;-83
2023/04/02 10:22:29;;;;;;;0.50;0.50;;;;;;;5.46;76.92;101455.16;5131306;28;20479;-83
2023/04/02 10:25:00;;;;;;;0.30;0.30;;;;;;;5.52;77.14;101457.81;5129404;28;20050;-83
2023/04/02 10:27:48;;;;;;;0.30;0.30;;;;;;;5.72;76.41;101465.72;5119700;28;20382;-82
2023/04/02 10:30:38;;;;;;;0.30;0.30;;;;;;;5.68;76.67;101469.19;5132377;28;20230;-82
2023/04/02 10:33:20;;;;;;;0.30;0.30;;;;;;;5.73;76.31;101475.28;5138230;28;20050;-83
2023/04/02 10:36:01;;;;;;;1.50;1.40;;;;;;;5.99;77.60;101477.16;5122673;28;20047;-83
2023/04/02 10:38:37;;;;;;;0.70;0.70;;;;;;;6.12;77.56;101483.28;5124250;28;20027;-83
2023/04/02 10:41:14;;;;;;;0.45;0.45;;;;;;;6.04;77.06;101490.22;5124591;28;20411;-81
2023/04/02 10:44:03;;;;;;;0.55;0.55;;;;;;;6.25;77.64;101500.69;5141414;28;20781;-82
2023/04/02 10:46:52;;;;;;;0.55;0.55;;;;;;;6.14;75.32;101497.22;5142003;28;20501;-81
2023/04/02 10:50:04;;;;;;;0.98;0.93;;;;;;;6.04;75.86;101508.44;5120527;28;20039;-82
2023/04/02 10:52:43;;;;;;;0.28;0.28;;;;;;;6.11;75.50;101512.81;5138692;28;20031;-82
2023/04/02 10:55:22;;;;;;;0.45;0.45;;;;;;;6.24;75.81;101517.19;5121535;28;20051;-83
2023/04/02 10:57:58;;;;;;;0.30;0.30;;;;;;;6.19;74.79;101521.53;5142654;28;20656;-84
2023/04/02 11:00:36;;;;;;;0.63;0.63;;;;;;;6.22;74.67;101518.06;5109073;28;20035;-83
2023/04/02 11:03:13;;;;;;;0.40;0.40;;;;;;;6.27;73.50;101519.81;5124424;28;20046;-82
2023/04/02 11:05:50;;;;;;;0.57;0.57;;;;;;;6.27;74.78;101521.56;5128718;28;20042;-84
2023/04/02 11:08:24;;;;;;;0.30;0.30;;;;;;;6.42;74.72;101523.34;5116514;28;20593;-82
2023/04/02 11:11:04;;;;;;;0.73;0.73;;;;;;;6.24;74.52;101530.22;5161278;28;20074;-83
2023/04/02 11:13:46;;;;;;;1.10;1.10;;;;;;;6.33;74.78;101528.53;5112469;28;20049;-84
2023/04/02 11:16:16;;;;;;;0.30;0.30;;;;;;;6.48;74.74;101539.03;5171005;28;20051;-84
2023/04/02 11:19:15;;;;;;;0.55;0.55;;;;;;;6.56;74.84;101546.84;5158780;28;20040;-82
2023/04/02 11:21:56;;;;;;;1.90;1.05;;;;;;;6.67;74.75;101544.28;5139206;28;20043;-83
2023/04/02 11:24:32;;;;;;;0.52;0.52;;;;;;;6.48;74.44;101544.25;5132479;28;20050;-83
2023/04/02 11:27:09;;;;;;;0.30;0.30;;;;;;;6.51;73.91;101549.44;5125986;28;20038;-83
2023/04/02 11:29:56;;;;;;;0.30;0.30;;;;;;;6.64;73.56;101554.72;5131806;28;20064;-83
2023/04/02 11:32:38;;;;;;;0.30;0.30;;;;;;;6.45;72.85;101558.13;5151832;28;20022;-85
2023/04/02 11:35:25;;;;;;;0.70;0.70;;;;;;;6.56;73.30;101560.78;5116812;28;20051;-83
2023/04/02 11:37:58;;;;;;;0.40;0.40;;;;;;;6.61;73.03;101566.88;5128101;28;20031;-82
2023/04/02 11:40:43;;;;;;;0.73;0.73;;;;;;;6.37;72.85;101570.25;5122950;28;20041;-83
2023/04/02 11:43:32;;;;;;;1.02;1.00;;;;;;;6.67;72.94;101570.34;5139960;28;20432;-83
2023/04/02 11:46:15;;;;;;;0.40;0.40;;;;;;;6.59;72.83;101570.34;5119791;28;20055;-82
2023/04/02 11:48:46;;;;;;;0.40;0.40;;;;;;;6.67;73.67;101578.16;5126887;28;20031;-82
2023/04/02 11:51:19;;;;;;;0.55;0.55;;;;;;;6.48;72.46;101574.63;5141827;28;20058;-85
2023/04/02 11:53:57;;;;;;;0.45;0.43;;;;;;;6.47;72.04;101579.00;5111476;28;21191;-83
2023/04/02 11:57:06;;;;;;;0.40;0.40;;;;;;;6.40;72.32;101587.66;5108530;28;20126;-83
2023/04/02 12:00:11;;;;;;;0.30;0.30;;;;;;;6.58;71.33;101595.53;5101829;28;20046;-83
2023/04/02 12:03:14;;;;;;;1.02;0.77;;;;;;;6.56;71.96;101589.47;5101370;28;20035;-84
2023/04/02 12:05:58;;;;;;;0.57;0.57;;;;;;;6.65;71.08;101598.19;5117388;28;20051;-83
2023/04/02 12:08:57;;;;;;;0.40;0.40;;;;;;;6.52;71.83;101605.94;5124182;28;20023;-84
2023/04/02 12:11:39;;;;;;;0.57;0.57;;;;;;;6.59;71.23;101610.31;5124608;28;20066;-84
2023/04/02 12:14:33;;;;;;;0.65;0.65;;;;;;;6.87;72.01;101615.63;5138298;28;20049;-84
2023/04/02 12:17:20;;;;;;;0.40;0.40;;;;;;;6.50;70.48;101617.25;5117308;28;20261;-83
2023/04/02 12:19:53;;;;;;;0.30;0.30;;;;;;;6.46;70.86;101618.97;5151280;28;20047;-83
2023/04/02 12:22:28;;;;;;;0.30;0.30;;;;;;;6.42;71.25;101620.69;5115460;28;20046;-83
2023/04/02 12:25:05;;;;;;;0.50;0.50;;;;;;;6.55;71.82;101621.63;5146854;28;20039;-83
2023/04/02 12:27:37;;;;;;;0.50;0.50;;;;;;;6.73;71.42;101630.38;5138447;28;20034;-83
2023/04/02 12:30:23;;;;;;;0.40;0.40;;;;;;;6.63;70.36;101631.19;5127427;28;20085;-83
2023/04/02 12:32:55;;;;;;;0.30;0.30;;;;;;;6.66;70.72;101641.63;5144535;28;20042;-84
2023/04/02 12:35:34;;;;;;;2.35;2.20;;;;;;;6.63;71.73;101647.69;5145830;28;20047;-83